KCOD/COD METAR and TAF weather

Enter ICAO airport designator
Station Type Date Time Source
KCOD METAR 2018/07/16 23:56 UTC NOAA

KCOD 162356Z AUTO 02006KT 10SM CLR 24/12 A3021 RMK AO2 SLP189 60003 T02390122 10267 20200 56013


Station Type Date Time Source
KCOD Decoded METAR 2018/07/16 23:56 UTC NOAA

Cody, WY, United States (KCOD) 44-31N 109-01W 1553M
Jul 16, 2018 - 07:56 PM EDT / 2018.07.16 2356 UTC
Wind: from the NNE (020 degrees) at 7 MPH (6 KT):0
Visibility: 10 mile(s):0
Sky conditions: clear
Temperature: 75.0 F (23.9 C)
Dew Point: 54.0 F (12.2 C)
Relative Humidity: 47%
Pressure (altimeter): 30.21 in. Hg (1023 hPa)
Pressure tendency: 0.04 inches (1.3 hPa) lower than three hours ago
ob: KCOD 162356Z AUTO 02006KT 10SM CLR 24/12 A3021 RMK AO2 SLP189 60003 T02390122 10267 20200 56013
cycle: 0

Station Type Date Time Source
KCOD TAF 2018/07/16 21:06 UTC NOAA

TAF
AMD KCOD 162105Z 1621/1718 VRB04KT P6SM VCSH SCT050 OVC250
FM162300 VRB10G20KT P6SM -TSRA SCT050CB OVC120
FM170000 01009KT P6SM VCTS SCT090CB
FM170400 27008KT P6SM VCSH BKN090
AMD LTD TO CLD VIS AND WIND


Example: see airport list